Time,TemperatureF,DewpointF,PressureIn,WindDirection,WindDirectionDegrees,WindSpeedMPH,WindSpeedGustMPH,Humidity,HourlyPrecipIn,Conditions,Clouds,dailyrainin,SoftwareType,DateUTC
2014-09-23 00:53:00,42.0,40.0,-100.00,NW,320,1.0,2.0,93,0.00,,,-99.99,,2014-09-23 04:53:00,
2014-09-23 01:22:00,41.0,40.0,-100.00,North,10,0.0,1.0,94,0.00,,,-99.99,,2014-09-23 05:22:00,
2014-09-23 02:22:00,40.0,39.0,-100.00,NW,320,1.0,1.0,95,0.00,,,-99.99,,2014-09-23 06:22:00,
2014-09-23 02:52:00,40.0,38.0,-100.00,NW,305,1.0,2.0,95,0.00,,,-99.99,,2014-09-23 06:52:00,
2014-09-23 03:22:00,40.0,39.0,-100.00,NW,305,0.0,1.0,96,0.00,,,-99.99,,2014-09-23 07:22:00,
2014-09-23 03:54:00,40.0,38.0,-100.00,NW,315,0.0,0.0,95,0.00,,,-99.99,,2014-09-23 07:54:00,
2014-09-23 04:23:00,39.0,37.0,-100.00,ENE,75,1.0,2.0,94,0.00,,,-99.99,,2014-09-23 08:23:00,
2014-09-23 04:52:00,39.0,38.0,-100.00,NNE,25,0.0,1.0,95,0.00,,,-99.99,,2014-09-23 08:52:00,
2014-09-23 05:23:00,39.0,38.0,-100.00,NE,40,0.0,1.0,96,0.00,,,-99.99,,2014-09-23 09:23:00,
2014-09-23 05:53:00,38.0,37.0,-100.00,NE,40,0.0,1.0,95,0.00,,,-99.99,,2014-09-23 09:53:00,
2014-09-23 06:23:00,39.0,38.0,-100.00,ENE,70,1.0,2.0,96,0.00,,,-99.99,,2014-09-23 10:23:00,
2014-09-23 06:53:00,38.0,37.0,-100.00,WSW,250,0.0,1.0,95,0.00,,,-99.99,,2014-09-23 10:53:00,
2014-09-23 07:22:00,38.0,37.0,-100.00,South,185,0.0,2.0,94,0.00,,,-99.99,,2014-09-23 11:22:00,
2014-09-23 07:53:00,38.0,37.0,-100.00,SW,230,1.0,3.0,95,0.00,,,-99.99,,2014-09-23 11:53:00,
2014-09-23 08:22:00,39.0,38.0,-100.00,ENE,65,1.0,4.0,96,0.00,,,-99.99,,2014-09-23 12:22:00,
2014-09-23 08:52:00,40.0,39.0,-100.00,East,80,1.0,2.0,97,0.00,,,-99.99,,2014-09-23 12:52:00,
2014-09-23 09:22:00,41.0,40.0,-100.00,East,90,1.0,3.0,97,0.00,,,-99.99,,2014-09-23 13:22:00,
2014-09-23 09:52:00,45.0,44.0,-100.00,South,180,1.0,2.0,93,0.00,,,-99.99,,2014-09-23 13:52:00,
2014-09-23 10:23:00,50.0,45.0,-100.00,ESE,105,1.0,3.0,84,0.00,,,-99.99,,2014-09-23 14:23:00,
2014-09-23 10:52:00,54.0,45.0,-100.00,South,175,1.0,4.0,70,0.00,,,-99.99,,2014-09-23 14:52:00,
2014-09-23 11:23:00,57.0,45.0,-100.00,SE,140,2.0,6.0,65,0.00,,,-99.99,,2014-09-23 15:23:00,
2014-09-23 11:53:00,59.0,45.0,-100.00,East,80,3.0,8.0,60,0.00,,,-99.99,,2014-09-23 15:53:00,
2014-09-23 12:24:00,61.0,44.0,-100.00,SE,125,3.0,9.0,53,0.00,,,-99.99,,2014-09-23 16:24:00,
2014-09-23 12:53:00,62.0,44.0,-100.00,ESE,115,4.0,9.0,52,0.00,,,-99.99,,2014-09-23 16:53:00,
2014-09-23 13:24:00,63.0,44.0,-100.00,SE,125,2.0,11.0,49,0.00,,,-99.99,,2014-09-23 17:24:00,
2014-09-23 13:54:00,65.0,43.0,-100.00,ESE,110,6.0,9.0,45,0.00,,,-99.99,,2014-09-23 17:54:00,
2014-09-23 14:22:00,66.0,43.0,-100.00,ESE,105,5.0,11.0,43,0.00,,,-99.99,,2014-09-23 18:22:00,